Unbenanntes Dokument
Flugplatz Bielefeld Platzwetter

 

Aktuelles Platzwetter am Flugplatz Bielefeld EDLI

11.12.17 ,07:38 Uhr

METAR EDLI 110737Z 10004KT 9999 ///011 M00/M00 Q0986

 

Windwerte

 

Wolkenuntergrenzen

Wind aktuell:100 ° mit 5 kt
Wind 10 min Extrem:
60 ° bis 120 ° mit 3 kt bis 5 kt
Seitenwindkomponente: -1.3 kt
Wolkengrenze 1: 1100 ft
Wolkengrenze 2:
Wolkengrenze 3:

Webcam

Temperatur

       

Sichtweite:

20.000 Meter

-0.2 °C
Taupunkt: -0.7 °C
Luftfeuchtigkeit: 96 %

Luftdruck:

QNH: 986 hPa (29.12 in Hg)
QFE: 970 hPa (28.64 in Hg)

Diese Daten werden automatisch ermittelt bzw. übertragen und sind nicht geprüft. Für die Richtigkeit wird daher keine Gewähr übernommen. Sie ersetzen im übrigen nicht die Flugwetterberatung. Alle Zeitangaben beziehen sich auf UTC. Die Seite wird einmal die Minute aktualisiert! Sollten Sie ein ältere Seite haben, so drücken Sie bitte auf den Reload Button Ihres Browsers!